sensor_id;sensor_type;location;lat;lon;timestamp;temperature;humidity
2407;DHT22;37709;53.480;9.688;2023-04-25T00:01:47;6.60;99.90
2407;DHT22;37709;53.480;9.688;2023-04-25T00:04:14;6.50;99.90
2407;DHT22;37709;53.480;9.688;2023-04-25T00:06:41;6.50;99.90
2407;DHT22;37709;53.480;9.688;2023-04-25T00:09:09;6.50;99.90
2407;DHT22;37709;53.480;9.688;2023-04-25T00:11:37;6.50;99.90
2407;DHT22;37709;53.480;9.688;2023-04-25T00:14:05;6.40;99.90
2407;DHT22;37709;53.480;9.688;2023-04-25T00:16:33;6.40;99.90
2407;DHT22;37709;53.480;9.688;2023-04-25T00:19:02;6.40;99.90
2407;DHT22;37709;53.480;9.688;2023-04-25T00:21:30;6.40;99.90
2407;DHT22;37709;53.480;9.688;2023-04-25T00:23:59;6.40;99.90
2407;DHT22;37709;53.480;9.688;2023-04-25T00:26:27;6.40;99.90
2407;DHT22;37709;53.480;9.688;2023-04-25T00:28:54;6.40;99.90
2407;DHT22;37709;53.480;9.688;2023-04-25T00:31:21;6.40;99.90
2407;DHT22;37709;53.480;9.688;2023-04-25T00:33:48;6.30;99.90
2407;DHT22;37709;53.480;9.688;2023-04-25T00:36:16;6.30;99.90
2407;DHT22;37709;53.480;9.688;2023-04-25T00:38:44;6.20;99.90
2407;DHT22;37709;53.480;9.688;2023-04-25T00:41:11;6.20;99.90
2407;DHT22;37709;53.480;9.688;2023-04-25T00:43:40;6.10;99.90
2407;DHT22;37709;53.480;9.688;2023-04-25T00:46:07;6.00;99.90
2407;DHT22;37709;53.480;9.688;2023-04-25T00:48:35;6.00;99.90
2407;DHT22;37709;53.480;9.688;2023-04-25T00:51:02;5.90;99.90
2407;DHT22;37709;53.480;9.688;2023-04-25T00:53:30;5.80;99.90
2407;DHT22;37709;53.480;9.688;2023-04-25T00:55:59;5.80;99.90
2407;DHT22;37709;53.480;9.688;2023-04-25T00:58:26;5.80;99.90
2407;DHT22;37709;53.480;9.688;2023-04-25T01:00:54;5.80;99.90
2407;DHT22;37709;53.480;9.688;2023-04-25T01:03:23;5.80;99.90
2407;DHT22;37709;53.480;9.688;2023-04-25T01:05:51;5.70;99.90
2407;DHT22;37709;53.480;9.688;2023-04-25T01:08:21;5.70;99.90
2407;DHT22;37709;53.480;9.688;2023-04-25T01:10:50;5.70;99.90
2407;DHT22;37709;53.480;9.688;2023-04-25T01:13:18;5.70;99.90
2407;DHT22;37709;53.480;9.688;2023-04-25T01:15:45;5.60;99.90
2407;DHT22;37709;53.480;9.688;2023-04-25T01:18:12;5.60;99.90
2407;DHT22;37709;53.480;9.688;2023-04-25T01:20:41;5.50;99.90
2407;DHT22;37709;53.480;9.688;2023-04-25T01:23:09;5.50;99.90
2407;DHT22;37709;53.480;9.688;2023-04-25T01:25:37;5.50;99.90
2407;DHT22;37709;53.480;9.688;2023-04-25T01:28:05;5.40;99.90
2407;DHT22;37709;53.480;9.688;2023-04-25T01:30:32;5.40;99.90
2407;DHT22;37709;53.480;9.688;2023-04-25T01:33:00;5.40;99.90
2407;DHT22;37709;53.480;9.688;2023-04-25T01:35:28;5.30;99.90
2407;DHT22;37709;53.480;9.688;2023-04-25T01:37:55;5.30;99.90
2407;DHT22;37709;53.480;9.688;2023-04-25T01:40:24;5.30;99.90
2407;DHT22;37709;53.480;9.688;2023-04-25T01:42:52;5.30;99.90
2407;DHT22;37709;53.480;9.688;2023-04-25T01:45:20;5.20;99.90
2407;DHT22;37709;53.480;9.688;2023-04-25T01:47:48;5.30;99.90
2407;DHT22;37709;53.480;9.688;2023-04-25T01:50:18;5.20;99.90
2407;DHT22;37709;53.480;9.688;2023-04-25T01:52:46;5.30;99.90
2407;DHT22;37709;53.480;9.688;2023-04-25T01:55:14;5.20;99.90
2407;DHT22;37709;53.480;9.688;2023-04-25T01:57:58;5.30;99.90
2407;DHT22;37709;53.480;9.688;2023-04-25T02:00:44;5.30;99.90
2407;DHT22;37709;53.480;9.688;2023-04-25T02:03:11;5.30;99.90
2407;DHT22;37709;53.480;9.688;2023-04-25T02:05:39;5.20;99.90
2407;DHT22;37709;53.480;9.688;2023-04-25T02:08:09;5.20;99.90
2407;DHT22;37709;53.480;9.688;2023-04-25T02:10:37;5.10;99.90
2407;DHT22;37709;53.480;9.688;2023-04-25T02:13:17;5.10;99.90
2407;DHT22;37709;53.480;9.688;2023-04-25T02:16:00;5.00;99.90
2407;DHT22;37709;53.480;9.688;2023-04-25T02:18:29;5.00;99.90
2407;DHT22;37709;53.480;9.688;2023-04-25T02:21:01;5.00;99.90
2407;DHT22;37709;53.480;9.688;2023-04-25T02:23:29;5.00;99.90
2407;DHT22;37709;53.480;9.688;2023-04-25T02:25:59;5.00;99.90
2407;DHT22;37709;53.480;9.688;2023-04-25T02:28:27;5.00;99.90
2407;DHT22;37709;53.480;9.688;2023-04-25T02:31:19;5.00;99.90
2407;DHT22;37709;53.480;9.688;2023-04-25T02:33:47;5.10;99.90
2407;DHT22;37709;53.480;9.688;2023-04-25T02:36:15;5.10;99.90
2407;DHT22;37709;53.480;9.688;2023-04-25T02:38:43;5.10;99.90
2407;DHT22;37709;53.480;9.688;2023-04-25T02:41:11;5.10;99.90
2407;DHT22;37709;53.480;9.688;2023-04-25T02:43:38;5.10;99.90
2407;DHT22;37709;53.480;9.688;2023-04-25T02:46:05;5.00;99.90
2407;DHT22;37709;53.480;9.688;2023-04-25T02:48:33;5.00;99.90
2407;DHT22;37709;53.480;9.688;2023-04-25T02:51:00;4.90;99.90
2407;DHT22;37709;53.480;9.688;2023-04-25T02:53:28;4.80;99.90
2407;DHT22;37709;53.480;9.688;2023-04-25T02:55:55;4.70;99.90
2407;DHT22;37709;53.480;9.688;2023-04-25T02:58:25;4.70;99.90
2407;DHT22;37709;53.480;9.688;2023-04-25T03:00:53;4.60;99.90
2407;DHT22;37709;53.480;9.688;2023-04-25T03:03:21;4.50;99.90
2407;DHT22;37709;53.480;9.688;2023-04-25T03:05:51;4.30;99.90
2407;DHT22;37709;53.480;9.688;2023-04-25T03:08:23;4.10;99.90
2407;DHT22;37709;53.480;9.688;2023-04-25T03:10:53;4.00;99.90
2407;DHT22;37709;53.480;9.688;2023-04-25T03:13:23;3.80;99.90
2407;DHT22;37709;53.480;9.688;2023-04-25T03:15:50;3.70;99.90
2407;DHT22;37709;53.480;9.688;2023-04-25T03:18:18;3.60;99.90
2407;DHT22;37709;53.480;9.688;2023-04-25T03:20:46;3.40;99.90
2407;DHT22;37709;53.480;9.688;2023-04-25T03:23:13;3.30;99.90
2407;DHT22;37709;53.480;9.688;2023-04-25T03:25:42;3.30;99.90
2407;DHT22;37709;53.480;9.688;2023-04-25T03:28:10;3.20;99.90
2407;DHT22;37709;53.480;9.688;2023-04-25T03:30:37;3.20;99.90
2407;DHT22;37709;53.480;9.688;2023-04-25T03:33:05;3.10;99.90
2407;DHT22;37709;53.480;9.688;2023-04-25T03:35:32;3.00;99.90
2407;DHT22;37709;53.480;9.688;2023-04-25T03:38:00;3.10;99.90
2407;DHT22;37709;53.480;9.688;2023-04-25T03:40:32;3.20;99.90
2407;DHT22;37709;53.480;9.688;2023-04-25T03:43:08;3.40;99.90
2407;DHT22;37709;53.480;9.688;2023-04-25T03:45:37;3.50;99.90
2407;DHT22;37709;53.480;9.688;2023-04-25T03:48:04;3.40;99.90
2407;DHT22;37709;53.480;9.688;2023-04-25T03:50:32;3.30;99.90
2407;DHT22;37709;53.480;9.688;2023-04-25T03:53:00;3.40;99.90
2407;DHT22;37709;53.480;9.688;2023-04-25T03:55:30;3.60;99.90
2407;DHT22;37709;53.480;9.688;2023-04-25T03:57:58;3.70;99.90
2407;DHT22;37709;53.480;9.688;2023-04-25T04:00:26;3.80;99.90
2407;DHT22;37709;53.480;9.688;2023-04-25T04:02:54;3.90;99.90
2407;DHT22;37709;53.480;9.688;2023-04-25T04:05:21;4.00;99.90
2407;DHT22;37709;53.480;9.688;2023-04-25T04:07:54;4.00;99.90
2407;DHT22;37709;53.480;9.688;2023-04-25T04:10:22;4.10;99.90
2407;DHT22;37709;53.480;9.688;2023-04-25T04:12:49;4.10;99.90
2407;DHT22;37709;53.480;9.688;2023-04-25T04:15:17;4.10;99.90
2407;DHT22;37709;53.480;9.688;2023-04-25T04:17:46;4.00;99.90
2407;DHT22;37709;53.480;9.688;2023-04-25T04:20:14;4.00;99.90
2407;DHT22;37709;53.480;9.688;2023-04-25T04:22:41;4.00;99.90
2407;DHT22;37709;53.480;9.688;2023-04-25T04:25:11;4.00;99.90
2407;DHT22;37709;53.480;9.688;2023-04-25T04:27:57;3.90;99.90
2407;DHT22;37709;53.480;9.688;2023-04-25T04:30:58;3.70;99.90
2407;DHT22;37709;53.480;9.688;2023-04-25T04:33:26;3.60;99.90
2407;DHT22;37709;53.480;9.688;2023-04-25T04:36:00;3.50;99.90
2407;DHT22;37709;53.480;9.688;2023-04-25T04:38:29;3.60;99.90
2407;DHT22;37709;53.480;9.688;2023-04-25T04:41:00;3.80;99.90
2407;DHT22;37709;53.480;9.688;2023-04-25T04:43:39;3.90;99.90
2407;DHT22;37709;53.480;9.688;2023-04-25T04:46:14;4.10;99.90
2407;DHT22;37709;53.480;9.688;2023-04-25T04:48:54;4.30;99.90
2407;DHT22;37709;53.480;9.688;2023-04-25T04:51:49;4.40;99.90
2407;DHT22;37709;53.480;9.688;2023-04-25T04:54:36;4.60;99.90
2407;DHT22;37709;53.480;9.688;2023-04-25T04:57:24;4.60;99.90
2407;DHT22;37709;53.480;9.688;2023-04-25T05:00:12;4.70;99.90
2407;DHT22;37709;53.480;9.688;2023-04-25T05:03:02;4.70;99.90
2407;DHT22;37709;53.480;9.688;2023-04-25T05:05:48;4.80;99.90
2407;DHT22;37709;53.480;9.688;2023-04-25T05:08:32;4.90;99.90
2407;DHT22;37709;53.480;9.688;2023-04-25T05:11:12;5.00;99.90
2407;DHT22;37709;53.480;9.688;2023-04-25T05:14:04;5.00;99.90
2407;DHT22;37709;53.480;9.688;2023-04-25T05:16:46;5.10;99.90
2407;DHT22;37709;53.480;9.688;2023-04-25T05:19:22;5.10;99.90
2407;DHT22;37709;53.480;9.688;2023-04-25T05:22:10;5.20;99.90
2407;DHT22;37709;53.480;9.688;2023-04-25T05:24:50;5.30;99.90
2407;DHT22;37709;53.480;9.688;2023-04-25T05:27:41;5.40;99.90
2407;DHT22;37709;53.480;9.688;2023-04-25T05:30:24;5.50;99.90
2407;DHT22;37709;53.480;9.688;2023-04-25T05:33:02;5.60;99.90
2407;DHT22;37709;53.480;9.688;2023-04-25T05:35:29;5.70;99.90
2407;DHT22;37709;53.480;9.688;2023-04-25T05:37:57;5.80;99.90
2407;DHT22;37709;53.480;9.688;2023-04-25T05:40:38;5.90;99.90
2407;DHT22;37709;53.480;9.688;2023-04-25T05:43:15;6.00;99.90
2407;DHT22;37709;53.480;9.688;2023-04-25T05:46:08;5.90;99.90
2407;DHT22;37709;53.480;9.688;2023-04-25T05:48:51;5.80;99.90
2407;DHT22;37709;53.480;9.688;2023-04-25T05:51:35;5.80;99.90
2407;DHT22;37709;53.480;9.688;2023-04-25T05:54:15;5.90;99.90
2407;DHT22;37709;53.480;9.688;2023-04-25T05:56:43;6.00;99.90
2407;DHT22;37709;53.480;9.688;2023-04-25T05:59:10;6.10;99.90
2407;DHT22;37709;53.480;9.688;2023-04-25T06:01:38;6.10;99.90
2407;DHT22;37709;53.480;9.688;2023-04-25T06:04:05;6.10;99.90
2407;DHT22;37709;53.480;9.688;2023-04-25T06:06:33;6.10;99.90
2407;DHT22;37709;53.480;9.688;2023-04-25T06:09:00;6.10;99.90
2407;DHT22;37709;53.480;9.688;2023-04-25T06:11:28;6.20;99.90
2407;DHT22;37709;53.480;9.688;2023-04-25T06:13:55;6.30;99.90
2407;DHT22;37709;53.480;9.688;2023-04-25T06:16:23;6.40;99.90
2407;DHT22;37709;53.480;9.688;2023-04-25T06:18:53;6.30;99.90
2407;DHT22;37709;53.480;9.688;2023-04-25T06:21:21;6.10;99.90
2407;DHT22;37709;53.480;9.688;2023-04-25T06:23:50;5.90;99.90
2407;DHT22;37709;53.480;9.688;2023-04-25T06:26:21;5.90;99.90
2407;DHT22;37709;53.480;9.688;2023-04-25T06:28:51;5.90;99.90
2407;DHT22;37709;53.480;9.688;2023-04-25T06:31:19;5.90;99.90
2407;DHT22;37709;53.480;9.688;2023-04-25T06:33:48;5.90;99.90
2407;DHT22;37709;53.480;9.688;2023-04-25T06:36:16;6.00;99.90
2407;DHT22;37709;53.480;9.688;2023-04-25T06:38:46;6.30;99.90
2407;DHT22;37709;53.480;9.688;2023-04-25T06:41:14;6.70;99.90
2407;DHT22;37709;53.480;9.688;2023-04-25T06:43:41;7.10;99.90
2407;DHT22;37709;53.480;9.688;2023-04-25T06:46:28;7.10;99.90
2407;DHT22;37709;53.480;9.688;2023-04-25T06:48:58;7.20;99.90
2407;DHT22;37709;53.480;9.688;2023-04-25T06:51:25;7.20;99.90
2407;DHT22;37709;53.480;9.688;2023-04-25T06:53:55;7.10;99.90
2407;DHT22;37709;53.480;9.688;2023-04-25T06:56:29;7.10;99.90
2407;DHT22;37709;53.480;9.688;2023-04-25T06:59:05;7.00;99.90
2407;DHT22;37709;53.480;9.688;2023-04-25T07:01:35;7.00;99.90
2407;DHT22;37709;53.480;9.688;2023-04-25T07:04:09;7.20;99.90
2407;DHT22;37709;53.480;9.688;2023-04-25T07:06:42;7.30;99.90
2407;DHT22;37709;53.480;9.688;2023-04-25T07:09:11;7.80;99.90
2407;DHT22;37709;53.480;9.688;2023-04-25T07:11:41;8.30;99.90
2407;DHT22;37709;53.480;9.688;2023-04-25T07:14:08;8.60;99.90
2407;DHT22;37709;53.480;9.688;2023-04-25T07:16:35;8.40;99.90
2407;DHT22;37709;53.480;9.688;2023-04-25T07:19:03;8.20;99.90
2407;DHT22;37709;53.480;9.688;2023-04-25T07:21:30;8.20;99.90
2407;DHT22;37709;53.480;9.688;2023-04-25T07:24:00;8.20;99.90
2407;DHT22;37709;53.480;9.688;2023-04-25T07:26:32;8.50;99.90
2407;DHT22;37709;53.480;9.688;2023-04-25T07:29:31;8.90;99.90
2407;DHT22;37709;53.480;9.688;2023-04-25T07:32:00;9.30;99.90
2407;DHT22;37709;53.480;9.688;2023-04-25T07:34:27;9.50;99.90
2407;DHT22;37709;53.480;9.688;2023-04-25T07:36:56;9.80;99.90
2407;DHT22;37709;53.480;9.688;2023-04-25T07:39:26;9.90;99.90
2407;DHT22;37709;53.480;9.688;2023-04-25T07:41:55;10.40;99.90
2407;DHT22;37709;53.480;9.688;2023-04-25T07:44:27;10.70;99.90
2407;DHT22;37709;53.480;9.688;2023-04-25T07:46:55;10.90;99.90
2407;DHT22;37709;53.480;9.688;2023-04-25T07:49:25;11.30;99.00
2407;DHT22;37709;53.480;9.688;2023-04-25T07:51:54;11.50;98.60
2407;DHT22;37709;53.480;9.688;2023-04-25T07:54:23;11.90;98.90
2407;DHT22;37709;53.480;9.688;2023-04-25T07:56:58;12.70;97.20
2407;DHT22;37709;53.480;9.688;2023-04-25T07:59:30;13.60;94.70
2407;DHT22;37709;53.480;9.688;2023-04-25T08:02:00;13.40;93.50
2407;DHT22;37709;53.480;9.688;2023-04-25T08:04:29;13.00;93.40
2407;DHT22;37709;53.480;9.688;2023-04-25T08:07:01;12.70;92.90
2407;DHT22;37709;53.480;9.688;2023-04-25T08:09:34;12.80;92.50
2407;DHT22;37709;53.480;9.688;2023-04-25T08:12:07;13.20;92.70
2407;DHT22;37709;53.480;9.688;2023-04-25T08:14:34;13.30;93.40
2407;DHT22;37709;53.480;9.688;2023-04-25T08:17:06;13.20;92.60
2407;DHT22;37709;53.480;9.688;2023-04-25T08:19:40;13.30;92.50
2407;DHT22;37709;53.480;9.688;2023-04-25T08:22:38;14.00;91.00
2407;DHT22;37709;53.480;9.688;2023-04-25T08:25:21;15.60;88.80
2407;DHT22;37709;53.480;9.688;2023-04-25T08:27:49;15.00;89.80
2407;DHT22;37709;53.480;9.688;2023-04-25T08:30:19;14.70;89.90
2407;DHT22;37709;53.480;9.688;2023-04-25T08:32:48;16.50;90.00
2407;DHT22;37709;53.480;9.688;2023-04-25T08:35:26;16.00;86.80
2407;DHT22;37709;53.480;9.688;2023-04-25T08:37:54;15.60;85.30
2407;DHT22;37709;53.480;9.688;2023-04-25T08:40:22;15.80;84.60
2407;DHT22;37709;53.480;9.688;2023-04-25T08:43:01;17.70;81.20
2407;DHT22;37709;53.480;9.688;2023-04-25T08:45:32;18.60;78.70
2407;DHT22;37709;53.480;9.688;2023-04-25T08:48:00;19.40;70.00
2407;DHT22;37709;53.480;9.688;2023-04-25T08:50:55;18.50;71.80
2407;DHT22;37709;53.480;9.688;2023-04-25T08:53:26;16.30;73.30
2407;DHT22;37709;53.480;9.688;2023-04-25T08:55:57;12.60;87.10
2407;DHT22;37709;53.480;9.688;2023-04-25T08:58:25;10.00;94.90
2407;DHT22;37709;53.480;9.688;2023-04-25T09:00:53;8.80;99.90
2407;DHT22;37709;53.480;9.688;2023-04-25T09:03:23;8.20;99.90
2407;DHT22;37709;53.480;9.688;2023-04-25T09:05:51;7.60;99.90
2407;DHT22;37709;53.480;9.688;2023-04-25T09:08:18;6.90;99.90
2407;DHT22;37709;53.480;9.688;2023-04-25T09:10:45;6.90;99.90
2407;DHT22;37709;53.480;9.688;2023-04-25T09:13:14;6.90;99.90
2407;DHT22;37709;53.480;9.688;2023-04-25T09:16:19;7.50;99.90
2407;DHT22;37709;53.480;9.688;2023-04-25T09:19:31;9.20;99.90
2407;DHT22;37709;53.480;9.688;2023-04-25T09:22:17;11.10;99.90
2407;DHT22;37709;53.480;9.688;2023-04-25T09:24:48;12.20;99.90
2407;DHT22;37709;53.480;9.688;2023-04-25T09:27:21;13.00;99.90
2407;DHT22;37709;53.480;9.688;2023-04-25T09:29:57;15.10;99.20
2407;DHT22;37709;53.480;9.688;2023-04-25T09:32:31;17.70;93.70
2407;DHT22;37709;53.480;9.688;2023-04-25T09:35:00;19.00;90.00
2407;DHT22;37709;53.480;9.688;2023-04-25T09:37:30;19.10;84.90
2407;DHT22;37709;53.480;9.688;2023-04-25T09:40:18;17.80;81.30
2407;DHT22;37709;53.480;9.688;2023-04-25T09:42:54;14.20;88.20
2407;DHT22;37709;53.480;9.688;2023-04-25T09:45:23;12.50;92.90
2407;DHT22;37709;53.480;9.688;2023-04-25T09:47:55;11.80;92.50
2407;DHT22;37709;53.480;9.688;2023-04-25T09:50:26;11.70;92.80
2407;DHT22;37709;53.480;9.688;2023-04-25T09:53:04;12.10;92.30
2407;DHT22;37709;53.480;9.688;2023-04-25T09:56:04;12.70;92.60
2407;DHT22;37709;53.480;9.688;2023-04-25T09:58:34;15.00;90.00
2407;DHT22;37709;53.480;9.688;2023-04-25T10:01:04;15.80;88.20
2407;DHT22;37709;53.480;9.688;2023-04-25T10:03:41;18.30;84.30
2407;DHT22;37709;53.480;9.688;2023-04-25T10:06:28;20.50;78.70
2407;DHT22;37709;53.480;9.688;2023-04-25T10:08:56;21.60;73.90
2407;DHT22;37709;53.480;9.688;2023-04-25T10:11:24;22.20;70.10
2407;DHT22;37709;53.480;9.688;2023-04-25T10:13:53;23.50;69.70
2407;DHT22;37709;53.480;9.688;2023-04-25T10:16:20;23.60;63.60
2407;DHT22;37709;53.480;9.688;2023-04-25T10:18:50;20.50;67.30
2407;DHT22;37709;53.480;9.688;2023-04-25T10:21:17;19.90;72.00
2407;DHT22;37709;53.480;9.688;2023-04-25T10:23:45;19.10;69.70
2407;DHT22;37709;53.480;9.688;2023-04-25T10:26:13;17.80;71.10
2407;DHT22;37709;53.480;9.688;2023-04-25T10:29:01;15.60;73.00
2407;DHT22;37709;53.480;9.688;2023-04-25T10:31:32;12.90;81.70
2407;DHT22;37709;53.480;9.688;2023-04-25T10:34:00;12.10;86.20
2407;DHT22;37709;53.480;9.688;2023-04-25T10:36:31;11.80;83.90
2407;DHT22;37709;53.480;9.688;2023-04-25T10:39:04;11.00;83.00
2407;DHT22;37709;53.480;9.688;2023-04-25T10:42:00;10.00;86.00
2407;DHT22;37709;53.480;9.688;2023-04-25T10:44:29;9.10;91.70
2407;DHT22;37709;53.480;9.688;2023-04-25T10:46:58;9.00;96.10
2407;DHT22;37709;53.480;9.688;2023-04-25T10:49:37;9.70;97.60
2407;DHT22;37709;53.480;9.688;2023-04-25T10:52:12;10.50;94.50
2407;DHT22;37709;53.480;9.688;2023-04-25T10:54:55;11.00;93.00
2407;DHT22;37709;53.480;9.688;2023-04-25T10:57:42;11.50;92.00
2407;DHT22;37709;53.480;9.688;2023-04-25T11:00:14;11.90;91.40
2407;DHT22;37709;53.480;9.688;2023-04-25T11:02:52;12.70;90.40
2407;DHT22;37709;53.480;9.688;2023-04-25T11:05:31;13.70;90.20
2407;DHT22;37709;53.480;9.688;2023-04-25T11:08:00;14.20;82.80
2407;DHT22;37709;53.480;9.688;2023-04-25T11:10:34;14.80;81.60
2407;DHT22;37709;53.480;9.688;2023-04-25T11:13:05;15.70;78.40
2407;DHT22;37709;53.480;9.688;2023-04-25T11:15:32;16.50;77.90
2407;DHT22;37709;53.480;9.688;2023-04-25T11:18:00;17.80;76.20
2407;DHT22;37709;53.480;9.688;2023-04-25T11:20:28;18.50;73.60
2407;DHT22;37709;53.480;9.688;2023-04-25T11:22:58;18.60;70.60
2407;DHT22;37709;53.480;9.688;2023-04-25T11:25:26;19.90;67.00
2407;DHT22;37709;53.480;9.688;2023-04-25T11:27:55;20.70;64.60
2407;DHT22;37709;53.480;9.688;2023-04-25T11:30:25;22.70;60.60
2407;DHT22;37709;53.480;9.688;2023-04-25T11:32:53;24.80;56.60
2407;DHT22;37709;53.480;9.688;2023-04-25T11:35:21;25.70;52.50
2407;DHT22;37709;53.480;9.688;2023-04-25T11:37:51;22.80;52.30
2407;DHT22;37709;53.480;9.688;2023-04-25T11:40:18;20.20;55.90
2407;DHT22;37709;53.480;9.688;2023-04-25T11:42:46;18.60;59.80
2407;DHT22;37709;53.480;9.688;2023-04-25T11:45:14;17.50;60.20
2407;DHT22;37709;53.480;9.688;2023-04-25T11:47:41;16.80;59.80
2407;DHT22;37709;53.480;9.688;2023-04-25T11:50:09;15.80;64.20
2407;DHT22;37709;53.480;9.688;2023-04-25T11:52:42;15.20;66.30
2407;DHT22;37709;53.480;9.688;2023-04-25T11:55:13;14.80;63.80
2407;DHT22;37709;53.480;9.688;2023-04-25T11:57:42;15.30;64.00
2407;DHT22;37709;53.480;9.688;2023-04-25T12:00:13;15.30;62.40
2407;DHT22;37709;53.480;9.688;2023-04-25T12:02:46;15.60;62.50
2407;DHT22;37709;53.480;9.688;2023-04-25T12:05:15;15.70;60.60
2407;DHT22;37709;53.480;9.688;2023-04-25T12:07:57;19.10;59.30
2407;DHT22;37709;53.480;9.688;2023-04-25T12:10:25;22.10;54.50
2407;DHT22;37709;53.480;9.688;2023-04-25T12:12:53;21.00;53.20
2407;DHT22;37709;53.480;9.688;2023-04-25T12:15:25;20.10;51.70
2407;DHT22;37709;53.480;9.688;2023-04-25T12:17:53;17.30;54.80
2407;DHT22;37709;53.480;9.688;2023-04-25T12:20:26;14.70;63.80
2407;DHT22;37709;53.480;9.688;2023-04-25T12:22:53;12.50;70.50
2407;DHT22;37709;53.480;9.688;2023-04-25T12:25:40;11.70;70.30
2407;DHT22;37709;53.480;9.688;2023-04-25T12:28:19;14.70;69.60
2407;DHT22;37709;53.480;9.688;2023-04-25T12:33:35;21.30;54.20
2407;DHT22;37709;53.480;9.688;2023-04-25T12:36:04;20.50;53.90
2407;DHT22;37709;53.480;9.688;2023-04-25T12:38:38;19.30;56.10
2407;DHT22;37709;53.480;9.688;2023-04-25T12:41:06;20.20;55.60
2407;DHT22;37709;53.480;9.688;2023-04-25T12:43:34;19.50;57.00
2407;DHT22;37709;53.480;9.688;2023-04-25T12:46:01;18.60;62.80
2407;DHT22;37709;53.480;9.688;2023-04-25T12:48:29;22.60;57.40
2407;DHT22;37709;53.480;9.688;2023-04-25T12:50:56;24.30;52.00
2407;DHT22;37709;53.480;9.688;2023-04-25T12:53:23;25.30;51.10
2407;DHT22;37709;53.480;9.688;2023-04-25T12:55:51;26.00;50.00
2407;DHT22;37709;53.480;9.688;2023-04-25T12:58:19;26.60;48.10
2407;DHT22;37709;53.480;9.688;2023-04-25T13:00:47;26.10;47.80
2407;DHT22;37709;53.480;9.688;2023-04-25T13:03:14;25.30;48.50
2407;DHT22;37709;53.480;9.688;2023-04-25T13:05:42;25.40;49.90
2407;DHT22;37709;53.480;9.688;2023-04-25T13:08:10;24.30;48.20
2407;DHT22;37709;53.480;9.688;2023-04-25T13:10:37;21.50;50.40
2407;DHT22;37709;53.480;9.688;2023-04-25T13:13:06;23.90;48.90
2407;DHT22;37709;53.480;9.688;2023-04-25T13:15:33;22.20;50.10
2407;DHT22;37709;53.480;9.688;2023-04-25T13:18:01;23.90;50.30
2407;DHT22;37709;53.480;9.688;2023-04-25T13:20:28;25.50;47.10
2407;DHT22;37709;53.480;9.688;2023-04-25T13:22:55;25.10;43.70
2407;DHT22;37709;53.480;9.688;2023-04-25T13:25:23;22.60;46.40
2407;DHT22;37709;53.480;9.688;2023-04-25T13:27:50;22.80;48.50
2407;DHT22;37709;53.480;9.688;2023-04-25T13:30:17;22.40;47.00
2407;DHT22;37709;53.480;9.688;2023-04-25T13:32:45;21.40;48.20
2407;DHT22;37709;53.480;9.688;2023-04-25T13:35:13;22.40;47.00
2407;DHT22;37709;53.480;9.688;2023-04-25T13:37:43;19.00;49.10
2407;DHT22;37709;53.480;9.688;2023-04-25T13:40:11;19.50;51.20
2407;DHT22;37709;53.480;9.688;2023-04-25T13:42:38;19.20;48.60
2407;DHT22;37709;53.480;9.688;2023-04-25T13:45:08;16.70;50.60
2407;DHT22;37709;53.480;9.688;2023-04-25T13:47:37;16.00;53.50
2407;DHT22;37709;53.480;9.688;2023-04-25T13:50:05;15.40;53.30
2407;DHT22;37709;53.480;9.688;2023-04-25T13:52:33;15.10;54.60
2407;DHT22;37709;53.480;9.688;2023-04-25T13:55:00;14.80;55.40
2407;DHT22;37709;53.480;9.688;2023-04-25T13:57:34;14.70;58.40
2407;DHT22;37709;53.480;9.688;2023-04-25T14:00:05;15.50;62.50
2407;DHT22;37709;53.480;9.688;2023-04-25T14:02:36;16.00;61.70
2407;DHT22;37709;53.480;9.688;2023-04-25T14:05:04;15.20;61.30
2407;DHT22;37709;53.480;9.688;2023-04-25T14:07:33;14.00;63.80
2407;DHT22;37709;53.480;9.688;2023-04-25T14:10:03;14.40;65.40
2407;DHT22;37709;53.480;9.688;2023-04-25T14:12:32;18.00;61.80
2407;DHT22;37709;53.480;9.688;2023-04-25T14:14:59;20.50;55.60
2407;DHT22;37709;53.480;9.688;2023-04-25T14:17:27;21.30;52.30
2407;DHT22;37709;53.480;9.688;2023-04-25T14:19:54;19.80;54.00
2407;DHT22;37709;53.480;9.688;2023-04-25T14:22:21;17.60;55.60
2407;DHT22;37709;53.480;9.688;2023-04-25T14:24:49;15.90;58.20
2407;DHT22;37709;53.480;9.688;2023-04-25T14:27:16;14.30;61.00
2407;DHT22;37709;53.480;9.688;2023-04-25T14:29:43;15.10;63.30
2407;DHT22;37709;53.480;9.688;2023-04-25T14:32:10;15.60;60.60
2407;DHT22;37709;53.480;9.688;2023-04-25T14:34:37;15.00;61.60
2407;DHT22;37709;53.480;9.688;2023-04-25T14:37:05;14.00;60.80
2407;DHT22;37709;53.480;9.688;2023-04-25T14:39:32;13.70;62.00
2407;DHT22;37709;53.480;9.688;2023-04-25T14:41:59;13.10;61.50
2407;DHT22;37709;53.480;9.688;2023-04-25T14:44:27;12.60;60.60
2407;DHT22;37709;53.480;9.688;2023-04-25T14:46:55;12.40;62.20
2407;DHT22;37709;53.480;9.688;2023-04-25T14:49:22;12.50;60.30
2407;DHT22;37709;53.480;9.688;2023-04-25T14:51:50;11.70;60.40
2407;DHT22;37709;53.480;9.688;2023-04-25T14:54:18;11.20;62.00
2407;DHT22;37709;53.480;9.688;2023-04-25T14:56:45;10.90;62.00
2407;DHT22;37709;53.480;9.688;2023-04-25T14:59:13;10.80;62.90
2407;DHT22;37709;53.480;9.688;2023-04-25T15:01:40;10.70;65.50
2407;DHT22;37709;53.480;9.688;2023-04-25T15:04:08;10.20;67.90
2407;DHT22;37709;53.480;9.688;2023-04-25T15:06:35;9.80;71.20
2407;DHT22;37709;53.480;9.688;2023-04-25T15:09:03;9.70;72.40
2407;DHT22;37709;53.480;9.688;2023-04-25T15:11:30;10.40;71.80
2407;DHT22;37709;53.480;9.688;2023-04-25T15:13:58;12.60;67.70
2407;DHT22;37709;53.480;9.688;2023-04-25T15:16:25;13.50;63.00
2407;DHT22;37709;53.480;9.688;2023-04-25T15:18:53;13.10;62.70
2407;DHT22;37709;53.480;9.688;2023-04-25T15:21:20;12.80;64.30
2407;DHT22;37709;53.480;9.688;2023-04-25T15:23:47;12.70;64.40
2407;DHT22;37709;53.480;9.688;2023-04-25T15:26:15;12.70;63.70
2407;DHT22;37709;53.480;9.688;2023-04-25T15:29:09;12.40;65.30
2407;DHT22;37709;53.480;9.688;2023-04-25T15:31:37;11.50;65.90
2407;DHT22;37709;53.480;9.688;2023-04-25T15:34:04;10.80;68.20
2407;DHT22;37709;53.480;9.688;2023-04-25T15:36:32;10.40;69.80
2407;DHT22;37709;53.480;9.688;2023-04-25T15:38:59;10.80;69.70
2407;DHT22;37709;53.480;9.688;2023-04-25T15:41:27;11.30;68.50
2407;DHT22;37709;53.480;9.688;2023-04-25T15:43:55;11.10;67.00
2407;DHT22;37709;53.480;9.688;2023-04-25T15:46:22;10.30;71.00
2407;DHT22;37709;53.480;9.688;2023-04-25T15:48:50;9.40;79.30
2407;DHT22;37709;53.480;9.688;2023-04-25T15:51:17;8.70;85.70
2407;DHT22;37709;53.480;9.688;2023-04-25T15:53:45;8.30;92.30
2407;DHT22;37709;53.480;9.688;2023-04-25T15:56:13;8.30;96.70
2407;DHT22;37709;53.480;9.688;2023-04-25T15:58:40;8.60;98.70
2407;DHT22;37709;53.480;9.688;2023-04-25T16:01:07;9.00;97.30
2407;DHT22;37709;53.480;9.688;2023-04-25T16:03:34;9.80;96.10
2407;DHT22;37709;53.480;9.688;2023-04-25T16:06:03;10.10;91.40
2407;DHT22;37709;53.480;9.688;2023-04-25T16:08:30;10.00;90.10
2407;DHT22;37709;53.480;9.688;2023-04-25T16:11:02;9.80;90.50
2407;DHT22;37709;53.480;9.688;2023-04-25T16:13:29;9.60;91.30
2407;DHT22;37709;53.480;9.688;2023-04-25T16:15:56;9.40;89.40
2407;DHT22;37709;53.480;9.688;2023-04-25T16:18:24;9.20;90.00
2407;DHT22;37709;53.480;9.688;2023-04-25T16:20:51;8.90;90.10
2407;DHT22;37709;53.480;9.688;2023-04-25T16:23:19;8.60;88.80